Time;durP1;ratioP1;P1;durP2;ratioP2;P2;SDS_P1;SDS_P2;PMS_P1;PMS_P2;Temp;Humidity;BMP_temperature;BMP_pressure;BME280_temperature;BME280_humidity;BME280_pressure;Samples;Min_cycle;Max_cycle;Signal;HPM_P1;HPM_P2
2022/12/07 00:02:23;;;;;;;10.72;9.68;;;;;;;8.63;60.24;99354.63;1833558;106;25907;-89
2022/12/07 00:06:18;;;;;;;;;;;;;;;8.63;60.22;99358.09;1821775;107;25982;-92
2022/12/07 00:14:16;;;;;;;10.15;9.08;;;;;;;8.63;60.22;99348.14;1795772;108;25946;-91
2022/12/07 00:17:48;;;;;;;11.00;9.70;;;;;;;8.62;60.20;99347.70;1835840;106;25832;-85
2022/12/07 00:21:49;;;;;;;11.55;10.45;;;;;;;8.62;60.19;99338.17;1800141;107;26003;-84
2022/12/07 00:25:36;;;;;;;10.15;9.13;;;;;;;8.63;60.18;99339.91;1807431;105;25957;-88
2022/12/07 00:29:55;;;;;;;11.33;8.98;;;;;;;8.64;60.18;99336.89;1798712;108;25836;-92
2022/12/07 00:33:34;;;;;;;10.90;9.48;;;;;;;8.64;60.17;99336.89;1798881;108;25990;-89
2022/12/07 00:49:55;;;;;;;13.90;10.38;;;;;;;8.64;60.13;99331.69;1804402;108;25869;-91
2022/12/07 00:59:35;;;;;;;13.53;10.15;;;;;;;8.63;60.15;99324.75;1734177;108;26112;-89
2022/12/07 01:03:18;;;;;;;;;;;;;;;;;;;;;
2022/12/07 01:06:43;;;;;;;17.52;12.03;;;;;;;8.62;60.13;99313.92;1728836;109;25876;-90
2022/12/07 01:10:30;;;;;;;16.65;12.05;;;;;;;8.63;60.14;99323.03;1744786;109;25914;-92
2022/12/07 01:14:11;;;;;;;16.20;12.10;;;;;;;8.63;60.13;99308.73;1851995;106;25936;-89
2022/12/07 01:17:52;;;;;;;14.38;12.13;;;;;;;8.64;60.12;99311.80;1863252;99;27093;-91
2022/12/07 01:33:30;;;;;;;16.30;13.40;;;;;;;8.67;60.17;99307.05;1912261;101;25819;-91
2022/12/07 01:37:30;;;;;;;;;;;;;;;;;;;;;
2022/12/07 01:43:49;;;;;;;;;;;;;;;;;;;;;
2022/12/07 01:49:59;;;;;;;;;;;;;;;;;;;;;
2022/12/07 02:05:06;;;;;;;16.45;12.35;;;;;;;8.69;60.20;99304.06;1728201;112;25901;-87
2022/12/07 02:09:05;;;;;;;;;;;;;;;;;;;;;
2022/12/07 02:13:52;;;;;;;14.53;11.95;;;;;;;8.69;60.22;99301.03;1755568;111;25739;-90
2022/12/07 02:25:29;;;;;;;13.45;10.55;;;;;;;8.71;60.22;99297.17;1721931;109;26202;-89
2022/12/07 02:29:53;;;;;;;;;;;;;;;;;;;;;
2022/12/07 02:33:40;;;;;;;15.75;11.28;;;;;;;8.71;60.26;99297.17;1731047;112;25862;-90
2022/12/07 02:37:48;;;;;;;15.28;10.95;;;;;;;8.71;60.26;99291.98;1754974;111;25929;-90
2022/12/07 02:41:55;;;;;;;12.30;10.28;;;;;;;8.72;60.23;99293.72;1797746;109;25839;-91
2022/12/07 02:45:34;;;;;;;;;;;;;;;8.72;60.23;99291.12;1801865;108;26034;-89
2022/12/07 02:49:33;;;;;;;;;;;;;;;;;;;;;
2022/12/07 02:57:35;;;;;;;;;;;;;;;;;;;;;
2022/12/07 03:01:26;;;;;;;10.23;8.88;;;;;;;8.72;60.24;99281.59;1865521;103;25867;-91
2022/12/07 03:05:32;;;;;;;10.68;8.03;;;;;;;8.73;60.25;99288.95;1826640;106;26003;-90
2022/12/07 03:13:40;;;;;;;10.32;8.18;;;;;;;8.72;60.22;99283.33;1767006;110;25914;-90
2022/12/07 03:17:31;;;;;;;9.95;7.97;;;;;;;8.72;60.21;99285.48;1764265;110;26172;-89
2022/12/07 03:21:20;;;;;;;8.68;7.58;;;;;;;8.72;60.22;99281.59;1765675;110;25524;-89
2022/12/07 03:25:05;;;;;;;8.83;7.87;;;;;;;8.73;60.20;99274.66;1765262;111;25950;-80
2022/12/07 03:28:42;;;;;;;8.03;7.12;;;;;;;8.73;60.20;99280.73;1803475;107;25811;-87
2022/12/07 03:32:46;;;;;;;9.33;7.15;;;;;;;8.73;60.19;99270.77;1758405;108;26043;-86
2022/12/07 03:36:11;;;;;;;9.15;7.95;;;;;;;8.74;60.18;99276.00;1797864;108;25462;-82
2022/12/07 03:40:23;;;;;;;8.13;7.00;;;;;;;8.74;60.18;99266.01;1803969;107;26005;-90
2022/12/07 03:44:10;;;;;;;9.38;6.97;;;;;;;8.74;60.18;99264.71;1801815;108;25736;-89
2022/12/07 03:48:28;;;;;;;7.53;6.72;;;;;;;8.73;60.16;99261.24;1753623;111;25988;-89
2022/12/07 03:52:09;;;;;;;8.00;7.12;;;;;;;8.73;60.15;99256.48;1852419;105;25876;-89
2022/12/07 03:55:56;;;;;;;7.67;6.87;;;;;;;8.73;60.15;99252.15;1846904;105;25900;-89
2022/12/07 03:59:42;;;;;;;6.75;6.15;;;;;;;8.72;60.14;99247.81;1875665;103;26109;-87
2022/12/07 04:03:18;;;;;;;6.58;5.97;;;;;;;8.72;60.13;99250.41;1848702;102;25796;-88
2022/12/07 04:10:37;;;;;;;6.45;5.62;;;;;;;8.71;60.12;99250.41;1819215;106;25615;-89
2022/12/07 04:17:59;;;;;;;6.08;5.47;;;;;;;8.70;60.11;99242.14;1832367;108;25899;-82
2022/12/07 04:21:28;;;;;;;5.65;5.05;;;;;;;8.69;60.08;99241.28;1837314;106;26069;-87
2022/12/07 04:29:25;;;;;;;;;;;;;;;;;;;;;
2022/12/07 04:34:56;;;;;;;;;;;;;;;;;;;;;
2022/12/07 04:50:42;;;;;;;;;;;;;;;;;;;;;
2022/12/07 04:54:39;;;;;;;;;;;;;;;;;;;;;
2022/12/07 04:58:27;;;;;;;;;;;;;;;;;;;;;
2022/12/07 05:02:44;;;;;;;5.17;4.53;;;;;;;8.58;60.06;99231.19;2286792;83;25806;-91
2022/12/07 05:10:58;;;;;;;4.55;4.20;;;;;;;8.57;59.99;99231.14;1990008;96;25382;-90
2022/12/07 05:14:33;;;;;;;;;;;;;;;;;;;;;
2022/12/07 05:18:49;;;;;;;3.50;3.20;;;;;;;8.54;59.96;99217.72;1818611;107;26030;-87
2022/12/07 05:22:29;;;;;;;;;;;;;;;;;;;;;
2022/12/07 05:26:35;;;;;;;3.92;3.12;;;;;;;8.52;59.90;99212.91;1841794;105;25412;-87
2022/12/07 05:30:29;;;;;;;4.00;3.70;;;;;;;8.50;59.92;99210.31;1714174;111;26029;-87
2022/12/07 05:34:02;;;;;;;3.85;3.52;;;;;;;8.51;59.90;99212.48;1723966;113;25931;-89
2022/12/07 05:38:28;;;;;;;4.72;4.30;;;;;;;8.49;59.90;99211.14;1723331;112;25938;-91
2022/12/07 05:52:45;;;;;;;;;;;;;;;;;;;;;
2022/12/07 05:56:35;;;;;;;;;;;;;;;;;;;;;
2022/12/07 06:04:46;;;;;;;;;;;;;;;;;;;;;
2022/12/07 06:24:45;;;;;;;;;;;;;;;;;;;;;
2022/12/07 06:39:20;;;;;;;3.20;2.95;;;;;;;8.33;59.76;99209.16;1679933;115;25523;-92
2022/12/07 07:01:58;;;;;;;2.90;2.70;;;;;;;8.27;59.73;99209.09;1715684;111;25912;-92
2022/12/07 07:09:59;;;;;;;3.17;2.67;;;;;;;8.26;59.74;99215.98;1697920;115;25942;-84
2022/12/07 07:14:23;;;;;;;;;;;;;;;;;;;;;
2022/12/07 07:22:50;;;;;;;3.80;3.22;;;;;;;8.27;59.69;99209.96;1777842;108;25471;-93
2022/12/07 07:31:10;;;;;;;35.90;21.55;;;;;;;8.27;59.69;99209.96;1834764;106;25971;-92
2022/12/07 07:35:16;;;;;;;14.25;11.15;;;;;;;8.37;61.09;99210.97;1823704;108;25982;-92
2022/12/07 07:39:06;;;;;;;10.43;6.85;;;;;;;8.40;60.91;99217.94;1790094;107;25405;-83
2022/12/07 07:42:39;;;;;;;8.00;5.55;;;;;;;8.30;60.08;99214.30;1902942;97;25872;-83
2022/12/07 07:46:18;;;;;;;7.22;5.17;;;;;;;7.76;59.62;99223.91;1893039;103;25818;-83
2022/12/07 07:49:59;;;;;;;4.35;3.87;;;;;;;7.37;60.19;99218.04;1875590;101;26061;-86
2022/12/07 07:53:22;;;;;;;4.97;4.55;;;;;;;7.03;59.92;99217.42;1894497;101;26020;-84
2022/12/07 07:57:02;;;;;;;5.70;4.37;;;;;;;6.76;60.46;99209.98;1891019;103;25337;-85
2022/12/07 08:00:41;;;;;;;4.30;3.90;;;;;;;6.58;60.41;99212.66;1833399;106;26112;-83
2022/12/07 08:04:19;;;;;;;3.70;3.17;;;;;;;6.45;60.90;99206.77;1853468;105;26063;-83
2022/12/07 08:07:55;;;;;;;4.95;4.20;;;;;;;6.29;61.12;99203.39;1790867;109;25935;-85
2022/12/07 08:11:50;;;;;;;7.08;4.35;;;;;;;6.20;61.65;99217.41;1711513;109;25966;-84
2022/12/07 08:37:22;;;;;;;;;;;;;;;;;;;;;
2022/12/07 08:41:47;;;;;;;;;;;;;;;;;;;;;
2022/12/07 08:45:35;;;;;;;;;;;;;;;;;;;;;
2022/12/07 08:58:38;;;;;;;;;;;;;;;;;;;;;
2022/12/07 09:14:19;;;;;;;7.90;6.62;;;;;;;6.87;63.19;99230.48;1811771;106;25641;-89
2022/12/07 09:18:25;;;;;;;9.28;7.42;;;;;;;6.98;63.06;99219.03;1813831;105;26160;-88
2022/12/07 09:33:33;;;;;;;16.10;8.58;;;;;;;7.23;62.67;99207.42;1791391;106;26565;-86
2022/12/07 09:41:52;;;;;;;;;;;;;;;;;;;;;
2022/12/07 09:52:37;;;;;;;;;;;;;;;;;;;;;
2022/12/07 10:07:30;;;;;;;;;;;;;;;;;;;;;
2022/12/07 10:24:42;;;;;;;;;;;;;;;;;;;;;
2022/12/07 10:28:25;;;;;;;8.43;7.15;;;;;;;11.42;66.32;99192.87;1658294;113;26065;-89
2022/12/07 10:32:22;;;;;;;;;;;;;;;;;;;;;
2022/12/07 10:35:51;;;;;;;8.40;7.42;;;;;;;11.22;65.58;99191.53;1643757;116;30917;-82
2022/12/07 10:39:37;;;;;;;;;;;;;;;;;;;;;
2022/12/07 10:43:27;;;;;;;7.90;7.10;;;;;;;11.07;65.11;99184.56;1709311;113;26026;-82
2022/12/07 10:47:36;;;;;;;7.50;6.75;;;;;;;10.95;64.54;99188.43;1711906;114;25916;-82
2022/12/07 11:00:29;;;;;;;8.90;6.12;;;;;;;10.71;63.61;99188.78;1719360;113;26508;-87
2022/12/07 11:04:40;;;;;;;7.75;6.35;;;;;;;10.64;63.48;99184.41;1716580;111;25979;-84
2022/12/07 11:12:42;;;;;;;;;;;;;;;;;;;;;
2022/12/07 11:17:15;;;;;;;7.55;6.05;;;;;;;10.50;62.88;99178.28;1651831;117;25932;-91
2022/12/07 11:25:35;;;;;;;;;;;;;;;;;;;;;
2022/12/07 11:33:51;;;;;;;10.08;5.70;;;;;;;9.74;62.21;99180.80;1623701;120;26117;-82
2022/12/07 11:37:45;;;;;;;6.37;5.80;;;;;;;9.60;62.21;99169.42;1621053;119;25620;-81
2022/12/07 11:41:25;;;;;;;6.42;5.92;;;;;;;9.49;62.23;99165.88;1594240;121;26580;-80
2022/12/07 11:45:06;;;;;;;6.53;5.62;;;;;;;9.41;62.24;99164.48;1589081;120;26064;-85
2022/12/07 11:49:29;;;;;;;6.90;6.40;;;;;;;9.36;62.27;99168.36;1601018;121;25904;-88
2022/12/07 11:53:19;;;;;;;5.73;5.33;;;;;;;9.36;62.29;99160.98;1578605;117;26116;-87
2022/12/07 11:57:17;;;;;;;7.67;6.80;;;;;;;9.51;62.65;99166.73;1629042;118;26347;-89
2022/12/07 12:00:57;;;;;;;7.12;6.35;;;;;;;9.70;63.57;99156.92;1641253;116;25970;-80
2022/12/07 12:04:27;;;;;;;14.40;7.83;;;;;;;9.83;63.24;99159.20;1635412;118;25992;-80
2022/12/07 12:08:04;;;;;;;6.17;5.75;;;;;;;9.88;63.01;99153.14;1636198;119;25928;-81
2022/12/07 12:12:05;;;;;;;7.40;6.15;;;;;;;9.90;62.98;99147.52;1600731;117;25966;-82
2022/12/07 12:16:14;;;;;;;;;;;;;;;;;;;;;
2022/12/07 12:20:09;;;;;;;6.17;5.58;;;;;;;9.86;62.75;99152.27;1601044;118;25521;-81
2022/12/07 12:24:03;;;;;;;6.33;5.72;;;;;;;9.84;62.73;99149.21;1604100;121;25952;-81
2022/12/07 12:27:48;;;;;;;6.72;6.22;;;;;;;9.80;62.69;99144.86;1639193;114;25948;-81
2022/12/07 12:31:35;;;;;;;6.33;5.72;;;;;;;9.78;62.69;99133.11;1694107;112;26157;-81
2022/12/07 12:35:30;;;;;;;6.30;5.67;;;;;;;9.75;62.55;99131.79;1722591;112;25803;-80
2022/12/07 12:39:26;;;;;;;7.05;5.65;;;;;;;9.73;62.54;99127.45;1737927;112;26026;-83
2022/12/07 12:43:10;;;;;;;5.95;5.45;;;;;;;9.70;62.40;99127.87;1773925;110;26140;-81
2022/12/07 12:46:47;;;;;;;6.58;5.97;;;;;;;9.67;62.41;99129.58;1781441;105;26555;-80
2022/12/07 12:50:39;;;;;;;;;;;;;;;;;;;;;
2022/12/07 12:54:10;;;;;;;6.30;5.47;;;;;;;9.52;62.06;99122.94;1809446;107;25829;-80
2022/12/07 12:57:36;;;;;;;5.95;5.45;;;;;;;9.40;62.14;99132.41;1835898;106;25853;-80
2022/12/07 13:01:38;;;;;;;6.08;5.58;;;;;;;9.35;62.02;99125.44;1831961;106;25865;-80
2022/12/07 13:05:18;;;;;;;5.47;5.08;;;;;;;9.33;62.03;99127.15;1838484;105;25958;-80
2022/12/07 13:08:54;;;;;;;7.62;5.83;;;;;;;9.31;62.00;99131.45;1836179;104;25908;-81
2022/12/07 13:12:23;;;;;;;5.53;4.97;;;;;;;9.29;61.93;99123.66;1838498;105;25951;-82
2022/12/07 13:16:22;;;;;;;4.85;4.45;;;;;;;9.22;61.89;99120.12;1837884;104;25915;-80
2022/12/07 13:20:01;;;;;;;6.97;4.25;;;;;;;9.21;61.83;99114.49;1836995;106;25881;-81
2022/12/07 13:23:56;;;;;;;;;;;;;;;;;;;;;
2022/12/07 13:27:27;;;;;;;4.12;3.83;;;;;;;9.05;61.59;99121.70;1870486;102;25848;-81
2022/12/07 13:31:21;;;;;;;4.90;4.50;;;;;;;9.03;61.62;99114.74;1883369;102;25840;-80
2022/12/07 13:34:59;;;;;;;3.98;3.55;;;;;;;8.95;61.48;99114.68;1879234;103;25875;-82
2022/12/07 13:39:04;;;;;;;4.22;3.87;;;;;;;8.93;61.98;99112.05;1855504;104;25850;-82
2022/12/07 13:42:38;;;;;;;4.90;4.00;;;;;;;8.83;61.81;99111.95;1857116;105;25985;-82
2022/12/07 13:46:18;;;;;;;;;;;;;;;;;;;;;
2022/12/07 13:53:30;;;;;;;5.25;4.72;;;;;;;8.51;61.75;99126.33;1744035;110;25624;-83
2022/12/07 13:57:02;;;;;;;4.70;3.98;;;;;;;8.46;61.83;99127.99;1750576;111;26595;-82
2022/12/07 14:00:28;;;;;;;4.45;4.15;;;;;;;8.43;61.82;99120.16;1747102;110;25909;-79
2022/12/07 14:04:02;;;;;;;5.12;4.72;;;;;;;8.49;62.48;99123.27;1748347;110;26029;-80
2022/12/07 14:07:28;;;;;;;5.05;4.55;;;;;;;8.52;62.29;99123.30;1739216;111;32435;-81
2022/12/07 14:11:07;;;;;;;7.17;4.97;;;;;;;8.55;62.22;99123.34;1744765;110;25994;-81
2022/12/07 14:14:34;;;;;;;5.40;4.90;;;;;;;8.57;62.04;99128.55;1740612;111;25997;-81
2022/12/07 14:18:09;;;;;;;7.28;6.67;;;;;;;8.51;61.92;99128.94;1737580;111;25828;-80
2022/12/07 14:21:36;;;;;;;8.93;5.87;;;;;;;8.44;61.83;99127.55;1734408;111;26115;-81
2022/12/07 14:25:37;;;;;;;5.92;5.47;;;;;;;8.39;61.76;99132.67;1732769;111;26038;-81
2022/12/07 14:29:28;;;;;;;7.87;7.17;;;;;;;8.30;61.71;99133.81;1730147;111;25821;-80
2022/12/07 14:33:07;;;;;;;6.45;5.92;;;;;;;8.15;61.70;99126.70;1734097;111;25818;-80
2022/12/07 14:36:43;;;;;;;7.30;6.10;;;;;;;8.11;62.30;99134.02;1762540;110;26211;-81
2022/12/07 14:40:00;;;;;;;6.40;5.90;;;;;;;8.04;62.08;99127.88;1770462;107;25791;-80
2022/12/07 14:43:24;;;;;;;9.25;6.58;;;;;;;7.99;62.05;99127.35;1768734;108;25712;-80
2022/12/07 14:46:53;;;;;;;7.47;6.60;;;;;;;7.93;62.04;99124.27;1769812;110;25913;-83
2022/12/07 14:50:30;;;;;;;7.15;5.85;;;;;;;7.92;62.02;99129.42;1768748;109;25972;-82
2022/12/07 14:54:00;;;;;;;7.47;6.75;;;;;;;7.88;62.03;99128.94;1771093;107;26615;-82
2022/12/07 14:57:24;;;;;;;6.03;5.45;;;;;;;7.84;61.99;99120.66;1820334;106;25778;-82
2022/12/07 15:00:50;;;;;;;6.62;6.03;;;;;;;7.81;62.00;99125.37;1831461;106;25621;-82
2022/12/07 15:04:20;;;;;;;7.85;6.70;;;;;;;7.76;61.92;99121.43;1850648;105;26506;-81
2022/12/07 15:08:09;;;;;;;6.40;5.87;;;;;;;7.75;61.86;99117.50;1808441;107;25887;-82
2022/12/07 15:11:40;;;;;;;8.20;6.45;;;;;;;7.75;61.91;99115.77;1854071;105;27085;-82
2022/12/07 15:15:09;;;;;;;8.15;7.35;;;;;;;7.74;61.86;99107.98;1852773;102;25997;-82
2022/12/07 15:18:36;;;;;;;9.90;7.35;;;;;;;7.74;61.80;99111.45;1825972;106;25803;-82
2022/12/07 15:22:06;;;;;;;7.50;6.78;;;;;;;7.83;61.92;99108.13;1833214;105;25454;-83
2022/12/07 15:25:35;;;;;;;6.55;5.92;;;;;;;7.93;61.88;99108.70;1825277;106;25825;-82
2022/12/07 15:29:20;;;;;;;9.03;6.92;;;;;;;8.02;61.86;99102.74;1857113;104;25843;-82
2022/12/07 15:32:44;;;;;;;6.62;5.95;;;;;;;8.09;61.83;99104.99;1863702;105;25948;-81
2022/12/07 15:36:30;;;;;;;;;;;;;;;;;;;;;
2022/12/07 15:39:54;;;;;;;6.50;5.90;;;;;;;8.17;61.72;99099.49;1871879;105;26097;-82
2022/12/07 15:47:20;;;;;;;6.60;6.10;;;;;;;8.21;61.63;99102.13;1877656;103;25767;-80
2022/12/07 15:50:54;;;;;;;6.83;5.72;;;;;;;8.21;61.53;99087.85;1870762;104;25965;-80
2022/12/07 15:54:36;;;;;;;6.72;5.72;;;;;;;8.21;61.35;99096.08;1849360;105;25385;-80
2022/12/07 15:58:06;;;;;;;6.42;5.83;;;;;;;8.21;61.42;99098.23;1865090;103;25982;-79
2022/12/07 16:01:49;;;;;;;6.58;5.92;;;;;;;8.24;61.37;99107.80;1859806;103;26493;-79
2022/12/07 16:05:08;;;;;;;;;;;;;;;8.23;61.34;99099.14;1856148;104;26062;-82
2022/12/07 16:08:40;;;;;;;7.22;6.05;;;;;;;8.25;61.32;99103.04;1847913;104;25858;-80
2022/12/07 16:12:11;;;;;;;6.75;6.10;;;;;;;8.23;61.28;99097.84;1843775;105;25891;-81
2022/12/07 16:15:50;;;;;;;7.65;6.20;;;;;;;8.23;61.25;99092.66;1868517;104;25754;-80
2022/12/07 16:19:27;;;;;;;6.80;6.10;;;;;;;8.22;61.28;99093.91;1874771;104;25847;-79
2022/12/07 16:22:57;;;;;;;5.97;5.40;;;;;;;8.23;61.24;99088.76;1789965;107;26681;-81
2022/12/07 16:26:33;;;;;;;6.35;5.70;;;;;;;8.25;61.28;99093.52;1806928;106;25456;-80
2022/12/07 16:30:09;;;;;;;5.97;5.37;;;;;;;8.27;61.27;99089.66;1761285;110;25797;-81
2022/12/07 16:34:01;;;;;;;9.73;6.20;;;;;;;8.29;61.26;99091.83;1748403;110;25434;-80
2022/12/07 16:37:21;;;;;;;6.83;6.22;;;;;;;8.30;61.26;99092.27;1743186;110;25882;-80
2022/12/07 16:40:51;;;;;;;6.95;6.35;;;;;;;8.30;61.20;99101.36;1751266;109;26204;-80
2022/12/07 16:44:29;;;;;;;5.90;5.40;;;;;;;8.31;61.15;99091.87;1743721;110;25651;-81
2022/12/07 16:48:13;;;;;;;7.03;6.42;;;;;;;8.29;61.15;99091.41;1683562;113;25948;-80
2022/12/07 16:51:58;;;;;;;7.90;7.00;;;;;;;8.32;61.17;99079.33;1704088;114;26621;-80
2022/12/07 16:55:33;;;;;;;7.05;6.45;;;;;;;8.32;61.07;99089.70;1683589;113;25879;-80
2022/12/07 16:59:17;;;;;;;7.28;6.67;;;;;;;8.31;61.10;99088.84;1694952;114;26071;-80
2022/12/07 17:02:38;;;;;;;7.47;6.83;;;;;;;8.32;61.09;99074.13;1708183;114;26138;-81
2022/12/07 17:06:16;;;;;;;7.62;6.92;;;;;;;8.33;61.13;99070.23;1709176;111;25911;-81
2022/12/07 17:09:58;;;;;;;;;;;;;;;;;;;;;
2022/12/07 17:20:58;;;;;;;7.60;6.78;;;;;;;8.32;61.00;99075.00;1738768;111;25904;-81
2022/12/07 17:24:20;;;;;;;7.37;5.92;;;;;;;8.34;61.04;99073.73;1740106;110;25771;-80
2022/12/07 17:28:10;;;;;;;8.38;7.58;;;;;;;8.36;61.02;99077.20;1806609;107;33188;-80
2022/12/07 17:31:39;;;;;;;7.95;7.15;;;;;;;8.35;60.90;99078.92;1798451;108;26093;-81
2022/12/07 17:35:14;;;;;;;8.88;8.03;;;;;;;8.34;60.89;99078.92;1796566;107;26794;-80
2022/12/07 17:38:51;;;;;;;9.70;7.22;;;;;;;8.34;60.77;99082.82;1822008;106;26129;-80
2022/12/07 17:42:50;;;;;;;7.33;6.70;;;;;;;8.34;60.81;99084.98;1827702;105;27009;-80
2022/12/07 17:46:15;;;;;;;10.65;7.33;;;;;;;8.36;60.78;99087.58;1781864;107;26357;-82
2022/12/07 17:49:41;;;;;;;8.00;7.20;;;;;;;8.33;60.71;99081.05;1782135;109;25987;-81
2022/12/07 17:53:19;;;;;;;9.10;7.22;;;;;;;8.33;60.71;99081.05;1779635;108;25888;-80
2022/12/07 17:56:42;;;;;;;8.75;7.67;;;;;;;8.34;60.63;99081.52;1780475;108;25967;-79
2022/12/07 18:00:18;;;;;;;9.20;7.20;;;;;;;8.34;60.59;99076.33;1780868;109;25871;-81
2022/12/07 18:03:48;;;;;;;9.25;8.35;;;;;;;8.37;60.52;99088.02;1787557;108;25854;-79
2022/12/07 18:07:24;;;;;;;7.80;7.00;;;;;;;8.34;60.53;99075.89;1787675;108;25870;-81
2022/12/07 18:10:56;;;;;;;7.03;6.42;;;;;;;8.33;60.49;99083.66;1844469;101;25854;-80
2022/12/07 18:14:19;;;;;;;8.85;7.62;;;;;;;8.28;60.45;99076.69;1899385;102;25799;-81
2022/12/07 18:17:54;;;;;;;8.80;7.83;;;;;;;8.28;60.51;99079.28;1917660;102;25757;-80
2022/12/07 18:21:19;;;;;;;9.33;7.45;;;;;;;8.31;60.47;99071.97;1907869;101;26540;-80
2022/12/07 18:25:00;;;;;;;8.90;7.62;;;;;;;8.29;60.37;99074.52;1873016;102;25384;-80
2022/12/07 18:28:33;;;;;;;9.00;7.03;;;;;;;8.29;60.47;99107.41;1871886;103;25853;-80
2022/12/07 18:31:58;;;;;;;;;;;;;;;8.32;60.49;99106.58;1873224;103;25918;-79
2022/12/07 18:35:29;;;;;;;7.03;6.28;;;;;;;8.33;60.39;99103.13;1875516;103;25834;-81
2022/12/07 18:39:16;;;;;;;7.00;6.20;;;;;;;8.33;60.53;99113.08;1902700;103;26042;-79
2022/12/07 18:42:44;;;;;;;7.53;6.40;;;;;;;8.34;60.50;99105.76;1907337;102;25939;-80
2022/12/07 18:46:25;;;;;;;6.15;5.60;;;;;;;8.34;60.52;99107.05;1903155;102;25811;-79
2022/12/07 18:50:13;;;;;;;6.60;5.90;;;;;;;8.37;60.56;99105.80;1927952;101;26650;-80
2022/12/07 18:53:43;;;;;;;6.35;5.75;;;;;;;8.37;60.55;99108.39;1926880;102;25907;-80
2022/12/07 18:57:04;;;;;;;5.53;5.03;;;;;;;8.37;60.56;99114.89;1959234;99;25747;-79
2022/12/07 19:00:48;;;;;;;5.83;5.33;;;;;;;8.38;60.55;99115.79;1943257;98;25729;-81
2022/12/07 19:04:19;;;;;;;5.55;5.05;;;;;;;8.37;60.54;99113.59;1982583;97;25793;-79
2022/12/07 19:07:50;;;;;;;8.45;5.25;;;;;;;8.37;60.49;99105.80;1989585;95;25851;-80
2022/12/07 19:15:24;;;;;;;;;;;;;;;8.38;60.41;99114.06;1944002;99;26233;-79
2022/12/07 19:18:48;;;;;;;5.67;3.98;;;;;;;8.38;60.43;99118.38;1968008;99;25591;-80
2022/12/07 19:22:17;;;;;;;5.45;4.95;;;;;;;8.38;60.45;99133.53;1966117;99;25898;-80
2022/12/07 19:25:49;;;;;;;6.08;5.47;;;;;;;8.38;60.42;99128.77;1970530;99;25922;-80
2022/12/07 19:29:18;;;;;;;5.42;4.87;;;;;;;8.38;60.41;99127.04;1976340;97;26555;-79
2022/12/07 19:32:46;;;;;;;5.10;4.60;;;;;;;8.39;60.39;99134.41;1985254;96;25795;-80
2022/12/07 19:36:13;;;;;;;4.97;4.42;;;;;;;8.38;60.40;99135.27;1940050;99;25731;-81
2022/12/07 19:39:34;;;;;;;4.83;4.30;;;;;;;8.37;60.28;99136.95;1949142;100;25881;-81
2022/12/07 19:43:02;;;;;;;5.00;4.47;;;;;;;8.37;60.30;99142.16;1939497;98;30983;-81
2022/12/07 19:46:35;;;;;;;7.37;5.58;;;;;;;8.37;60.29;99148.64;1984461;96;25884;-79
2022/12/07 19:49:59;;;;;;;5.37;4.83;;;;;;;8.45;61.93;99143.57;2004348;97;25761;-77
2022/12/07 19:53:31;;;;;;;4.90;4.50;;;;;;;8.53;61.96;99151.02;1998765;96;25954;-79
2022/12/07 19:57:04;;;;;;;5.53;5.00;;;;;;;8.55;61.71;99150.62;1996661;95;25804;-79
2022/12/07 20:00:38;;;;;;;5.58;5.08;;;;;;;8.55;61.67;99154.52;1982021;98;25449;-79
2022/12/07 20:04:06;;;;;;;5.92;5.33;;;;;;;8.55;61.62;99159.71;1987887;97;26697;-80
2022/12/07 20:07:42;;;;;;;5.25;4.60;;;;;;;8.55;61.55;99184.82;1976436;96;25782;-80
2022/12/07 20:13:27;;;;;;;5.50;4.50;;;;;;;8.54;61.51;99174.86;2056929;94;25820;-79
2022/12/07 20:14:28;;;;;;;4.92;4.53;;;;;;;8.54;61.43;99181.35;2043838;95;25760;-79
2022/12/07 20:17:52;;;;;;;4.60;4.20;;;;;;;8.54;61.32;99186.95;2048865;92;25790;-78
2022/12/07 20:21:33;;;;;;;4.58;4.15;;;;;;;8.54;61.24;99192.14;2052799;94;25805;-80
2022/12/07 20:25:02;;;;;;;4.42;3.90;;;;;;;8.51;61.19;99194.30;2049781;94;25773;-80
2022/12/07 20:28:45;;;;;;;4.45;4.08;;;;;;;8.49;61.09;99192.96;2045840;93;25895;-85
2022/12/07 20:32:15;;;;;;;6.60;4.78;;;;;;;8.47;60.95;99191.19;2040084;94;26603;-82
2022/12/07 20:35:48;;;;;;;4.62;4.12;;;;;;;8.47;60.90;99198.98;2044056;93;25695;-81
2022/12/07 20:39:28;;;;;;;4.10;3.80;;;;;;;8.44;60.76;99203.73;2055502;93;25877;-81
2022/12/07 20:43:02;;;;;;;4.33;3.92;;;;;;;8.44;60.72;99213.25;2053276;94;25977;-81
2022/12/07 20:46:33;;;;;;;4.70;3.70;;;;;;;8.42;60.62;99210.63;2047891;94;32479;-81
2022/12/07 20:49:56;;;;;;;4.20;3.90;;;;;;;8.39;60.54;99213.60;2046704;93;25810;-81
2022/12/07 20:53:27;;;;;;;4.00;3.52;;;;;;;8.35;60.35;99216.98;2058318;93;25841;-81
2022/12/07 20:57:09;;;;;;;3.52;3.20;;;;;;;8.31;60.34;99213.91;2053574;93;25811;-80
2022/12/07 21:00:43;;;;;;;5.00;3.40;;;;;;;8.28;60.18;99218.62;2049016;94;25837;-81
2022/12/07 21:04:05;;;;;;;3.98;3.17;;;;;;;8.25;60.09;99223.77;1972201;98;25795;-81
2022/12/07 21:07:36;;;;;;;3.20;2.87;;;;;;;8.22;60.06;99223.72;1967824;98;26614;-81
2022/12/07 21:11:12;;;;;;;3.22;2.92;;;;;;;8.20;60.02;99217.62;1969464;99;25825;-81
2022/12/07 21:14:43;;;;;;;4.47;3.12;;;;;;;8.15;59.86;99211.08;1968605;96;25939;-82
2022/12/07 21:18:20;;;;;;;3.62;2.55;;;;;;;8.13;59.80;99229.64;1970317;97;25820;-82
2022/12/07 21:21:43;;;;;;;3.08;2.70;;;;;;;8.13;59.82;99226.17;1951841;98;26386;-82
2022/12/07 21:25:17;;;;;;;7.22;3.65;;;;;;;8.10;59.66;99232.61;1979794;98;25791;-81
2022/12/07 21:28:59;;;;;;;3.40;3.10;;;;;;;8.04;59.54;99235.58;1973821;98;25855;-81
2022/12/07 21:32:20;;;;;;;5.60;3.05;;;;;;;8.01;59.48;99236.83;1945512;99;25840;-83
2022/12/07 21:35:52;;;;;;;3.50;2.52;;;;;;;7.98;60.13;99245.86;1968792;99;25788;-79
2022/12/07 21:39:15;;;;;;;3.27;2.75;;;;;;;8.00;60.12;99253.69;1944940;99;25979;-82
2022/12/07 21:42:49;;;;;;;5.78;3.25;;;;;;;7.97;60.02;99248.02;1948574;98;26442;-79
2022/12/07 21:46:15;;;;;;;3.10;2.85;;;;;;;7.97;59.97;99250.61;1895361;103;25852;-79
2022/12/07 21:49:39;;;;;;;3.87;2.50;;;;;;;7.96;59.84;99247.55;1933657;101;25935;-82
2022/12/07 21:53:10;;;;;;;3.40;3.00;;;;;;;7.95;59.86;99241.92;1904766;101;26144;-79
2022/12/07 21:56:46;;;;;;;;;;;;;;;7.95;59.90;99243.22;1936693;100;25761;-80
2022/12/07 22:00:21;;;;;;;5.22;3.12;;;;;;;7.95;59.82;99245.81;1908178;99;25878;-83
2022/12/07 22:03:55;;;;;;;7.65;2.75;;;;;;;7.93;59.65;99244.03;1892063;103;25994;-79
2022/12/07 22:07:35;;;;;;;4.20;3.33;;;;;;;7.91;59.65;99250.94;1906623;101;25846;-80
2022/12/07 22:11:01;;;;;;;3.30;3.00;;;;;;;7.89;59.65;99249.59;1792101;108;25558;-81
2022/12/07 22:19:14;;;;;;;3.30;2.87;;;;;;;7.85;59.46;99253.42;1778401;108;25896;-81
2022/12/07 22:22:14;;;;;;;3.83;3.05;;;;;;;7.84;59.39;99255.58;1780860;108;26218;-82
2022/12/07 22:25:57;;;;;;;4.78;3.50;;;;;;;7.83;59.40;99255.11;1785619;107;26140;-80
2022/12/07 22:29:19;;;;;;;3.67;2.67;;;;;;;7.83;59.39;99246.93;1783721;108;25861;-83
2022/12/07 22:33:05;;;;;;;4.83;2.85;;;;;;;7.84;59.38;99246.50;1841143;105;25979;-81
2022/12/07 22:36:36;;;;;;;5.03;2.70;;;;;;;7.86;59.36;99242.19;1782045;107;25626;-80
2022/12/07 22:40:01;;;;;;;3.83;3.17;;;;;;;7.86;59.37;99248.67;1784129;109;25421;-82
2022/12/07 22:43:50;;;;;;;4.72;3.85;;;;;;;7.88;59.37;99255.65;1778566;109;25890;-82
2022/12/07 22:47:22;;;;;;;4.53;3.33;;;;;;;7.87;59.35;99253.91;1779916;109;26091;-80
2022/12/07 22:50:55;;;;;;;4.20;2.90;;;;;;;7.88;59.33;99249.59;1777538;108;26231;-79
2022/12/07 22:54:41;;;;;;;3.10;2.58;;;;;;;7.87;59.18;99251.31;1816734;107;25999;-80
2022/12/07 22:58:20;;;;;;;5.58;3.25;;;;;;;7.86;59.18;99253.87;1771527;107;26147;-81
2022/12/07 23:02:09;;;;;;;4.78;3.22;;;;;;;7.85;59.06;99245.64;1765054;105;25982;-83
2022/12/07 23:05:35;;;;;;;5.65;3.05;;;;;;;7.84;58.92;99243.91;1741449;110;25937;-82
2022/12/07 23:09:06;;;;;;;4.40;3.50;;;;;;;7.79;58.87;99253.77;1788361;107;25959;-81
2022/12/07 23:16:26;;;;;;;6.17;3.52;;;;;;;7.79;58.90;99252.46;1824220;107;25617;-82
2022/12/07 23:20:12;;;;;;;;;;;;;;;;;;;;;
2022/12/07 23:27:08;;;;;;;4.75;3.52;;;;;;;7.79;58.95;99261.55;1878950;104;25802;-81
2022/12/07 23:30:38;;;;;;;7.65;3.98;;;;;;;7.80;58.92;99266.34;1894356;102;26125;-80
2022/12/07 23:34:00;;;;;;;4.45;3.40;;;;;;;7.80;58.85;99263.31;1930969;101;25637;-80
2022/12/07 23:37:36;;;;;;;5.15;3.77;;;;;;;7.81;58.89;99269.37;1997799;96;25999;-81
2022/12/07 23:41:21;;;;;;;6.10;3.70;;;;;;;7.81;58.80;99270.67;2007952;97;25757;-82
2022/12/07 23:45:11;;;;;;;6.50;4.58;;;;;;;7.81;58.82;99274.13;2007786;97;25684;-82
2022/12/07 23:52:13;;;;;;;4.40;3.80;;;;;;;7.82;58.72;99265.92;1974134;96;25452;-81